sensor_id;sensor_type;location;lat;lon;timestamp;pressure;altitude;pressure_sealevel;temperature;humidity
47670;BME280;33408;52.062;11.722;2023-01-29T00:01:03;102417.44;;;-1.12;100.00
47670;BME280;33408;52.062;11.722;2023-01-29T00:03:30;102412.19;;;-1.30;100.00
47670;BME280;33408;52.062;11.722;2023-01-29T00:06:05;102412.44;;;-1.25;100.00
47670;BME280;33408;52.062;11.722;2023-01-29T00:08:32;102405.50;;;-1.42;100.00
47670;BME280;33408;52.062;11.722;2023-01-29T00:11:00;102409.53;;;-1.31;100.00
47670;BME280;33408;52.062;11.722;2023-01-29T00:13:26;102401.81;;;-1.48;100.00
47670;BME280;33408;52.062;11.722;2023-01-29T00:15:53;102400.25;;;-1.45;100.00
47670;BME280;33408;52.062;11.722;2023-01-29T00:18:20;102391.13;;;-1.57;100.00
47670;BME280;33408;52.062;11.722;2023-01-29T00:20:47;102398.25;;;-1.51;100.00
47670;BME280;33408;52.062;11.722;2023-01-29T00:23:15;102401.81;;;-1.48;100.00
47670;BME280;33408;52.062;11.722;2023-01-29T00:25:43;102395.50;;;-1.24;100.00
47670;BME280;33408;52.062;11.722;2023-01-29T00:28:10;102385.84;;;-1.60;100.00
47670;BME280;33408;52.062;11.722;2023-01-29T00:30:37;102375.22;;;-1.68;100.00
47670;BME280;33408;52.062;11.722;2023-01-29T00:33:04;102380.06;;;-1.72;100.00
47670;BME280;33408;52.062;11.722;2023-01-29T00:35:31;102382.06;;;-1.67;100.00
47670;BME280;33408;52.062;11.722;2023-01-29T00:37:58;102369.19;;;-1.70;100.00
47670;BME280;33408;52.062;11.722;2023-01-29T00:40:26;102376.31;;;-1.64;100.00
47670;BME280;33408;52.062;11.722;2023-01-29T00:42:52;102369.72;;;-1.75;100.00
47670;BME280;33408;52.062;11.722;2023-01-29T00:45:36;102353.38;;;-1.79;100.00
47670;BME280;33408;52.062;11.722;2023-01-29T00:48:03;102358.72;;;-1.89;100.00
47670;BME280;33408;52.062;11.722;2023-01-29T00:50:30;102352.88;;;-1.88;100.00
47670;BME280;33408;52.062;11.722;2023-01-29T00:52:57;102343.94;;;-1.81;100.00
47670;BME280;33408;52.062;11.722;2023-01-29T00:55:24;102348.19;;;-2.10;100.00
47670;BME280;33408;52.062;11.722;2023-01-29T00:57:52;102345.66;;;-2.10;100.00
47670;BME280;33408;52.062;11.722;2023-01-29T01:00:19;102352.16;;;-2.00;100.00
47670;BME280;33408;52.062;11.722;2023-01-29T01:02:45;102354.34;;;-1.92;100.00
47670;BME280;33408;52.062;11.722;2023-01-29T01:05:29;102343.84;;;-1.98;100.00
47670;BME280;33408;52.062;11.722;2023-01-29T01:07:57;102349.16;;;-2.08;100.00
47670;BME280;33408;52.062;11.722;2023-01-29T01:10:26;102348.97;;;-2.11;100.00
47670;BME280;33408;52.062;11.722;2023-01-29T01:12:55;102348.88;;;-2.13;100.00
47670;BME280;33408;52.062;11.722;2023-01-29T01:15:23;102346.88;;;-2.04;100.00
47670;BME280;33408;52.062;11.722;2023-01-29T01:17:51;102345.66;;;-2.10;100.00
47670;BME280;33408;52.062;11.722;2023-01-29T01:20:18;102341.63;;;-1.92;100.00
47670;BME280;33408;52.062;11.722;2023-01-29T01:22:45;102342.75;;;-2.02;100.00
47670;BME280;33408;52.062;11.722;2023-01-29T01:25:11;102349.41;;;-2.18;100.00
47670;BME280;33408;52.062;11.722;2023-01-29T01:27:38;102352.91;;;-2.02;100.00
47670;BME280;33408;52.062;11.722;2023-01-29T01:30:09;102347.34;;;-1.81;100.00
47670;BME280;33408;52.062;11.722;2023-01-29T01:32:36;102341.13;;;-1.71;100.00
47670;BME280;33408;52.062;11.722;2023-01-29T01:35:04;102340.44;;;-1.69;100.00
47670;BME280;33408;52.062;11.722;2023-01-29T01:37:31;102334.81;;;-1.63;100.00
47670;BME280;33408;52.062;11.722;2023-01-29T01:39:57;102351.38;;;-1.55;100.00
47670;BME280;33408;52.062;11.722;2023-01-29T01:42:27;102348.94;;;-1.53;100.00
47670;BME280;33408;52.062;11.722;2023-01-29T01:44:58;102342.78;;;-1.57;100.00
47670;BME280;33408;52.062;11.722;2023-01-29T01:47:33;102341.47;;;-1.50;100.00
47670;BME280;33408;52.062;11.722;2023-01-29T01:50:06;102350.22;;;-1.45;100.00
47670;BME280;33408;52.062;11.722;2023-01-29T01:52:36;102342.25;;;-1.21;100.00
47670;BME280;33408;52.062;11.722;2023-01-29T01:55:06;102345.13;;;-1.15;100.00
47670;BME280;33408;52.062;11.722;2023-01-29T01:57:35;102342.50;;;-1.17;100.00
47670;BME280;33408;52.062;11.722;2023-01-29T02:00:05;102339.25;;;-1.29;100.00
47670;BME280;33408;52.062;11.722;2023-01-29T02:02:38;102340.28;;;-1.11;100.00
47670;BME280;33408;52.062;11.722;2023-01-29T02:05:23;102330.28;;;-1.07;100.00
47670;BME280;33408;52.062;11.722;2023-01-29T02:08:09;102338.81;;;-1.22;100.00
47670;BME280;33408;52.062;11.722;2023-01-29T02:10:54;102340.84;;;-1.31;100.00
47670;BME280;33408;52.062;11.722;2023-01-29T02:13:21;102332.69;;;-1.25;100.00
47670;BME280;33408;52.062;11.722;2023-01-29T02:15:48;102338.31;;;-1.31;100.00
47670;BME280;33408;52.062;11.722;2023-01-29T02:18:18;102326.63;;;-1.13;100.00
47670;BME280;33408;52.062;11.722;2023-01-29T02:20:48;102321.53;;;-1.13;100.00
47670;BME280;33408;52.062;11.722;2023-01-29T02:23:54;102316.72;;;-1.23;100.00
47670;BME280;33408;52.062;11.722;2023-01-29T02:26:38;102312.13;;;-1.14;100.00
47670;BME280;33408;52.062;11.722;2023-01-29T02:29:09;102319.13;;;-1.10;100.00
47670;BME280;33408;52.062;11.722;2023-01-29T02:32:08;102312.25;;;-0.96;100.00
47670;BME280;33408;52.062;11.722;2023-01-29T02:34:46;102310.88;;;-1.05;100.00
47670;BME280;33408;52.062;11.722;2023-01-29T02:37:35;102310.53;;;-1.12;100.00
47670;BME280;33408;52.062;11.722;2023-01-29T02:40:12;102307.91;;;-1.13;100.00
47670;BME280;33408;52.062;11.722;2023-01-29T02:42:47;102313.44;;;-1.05;100.00
47670;BME280;33408;52.062;11.722;2023-01-29T02:45:22;102317.72;;;-1.04;100.00
47670;BME280;33408;52.062;11.722;2023-01-29T02:47:56;102316.13;;;-1.02;100.00
47670;BME280;33408;52.062;11.722;2023-01-29T02:50:28;102319.47;;;-1.03;100.00
47670;BME280;33408;52.062;11.722;2023-01-29T02:53:01;102313.16;;;-1.10;100.00
47670;BME280;33408;52.062;11.722;2023-01-29T02:55:32;102311.91;;;-1.02;100.00
47670;BME280;33408;52.062;11.722;2023-01-29T02:58:04;102312.81;;;-1.01;100.00
47670;BME280;33408;52.062;11.722;2023-01-29T03:00:33;102306.63;;;-0.90;100.00
47670;BME280;33408;52.062;11.722;2023-01-29T03:03:06;102310.34;;;-1.00;100.00
47670;BME280;33408;52.062;11.722;2023-01-29T03:05:42;102314.81;;;-0.96;100.00
47670;BME280;33408;52.062;11.722;2023-01-29T03:08:14;102322.22;;;-0.84;100.00
47670;BME280;33408;52.062;11.722;2023-01-29T03:10:47;102317.63;;;-0.75;100.00
47670;BME280;33408;52.062;11.722;2023-01-29T03:13:18;102327.47;;;-0.81;100.00
47670;BME280;33408;52.062;11.722;2023-01-29T03:15:51;102332.47;;;-0.82;100.00
47670;BME280;33408;52.062;11.722;2023-01-29T03:18:27;102323.88;;;-0.84;100.00
47670;BME280;33408;52.062;11.722;2023-01-29T03:21:00;102326.34;;;-0.86;100.00
47670;BME280;33408;52.062;11.722;2023-01-29T03:23:48;102323.66;;;-0.73;100.00
47670;BME280;33408;52.062;11.722;2023-01-29T03:26:32;102337.94;;;-0.60;100.00
47670;BME280;33408;52.062;11.722;2023-01-29T03:29:16;102325.75;;;-0.49;100.00
47670;BME280;33408;52.062;11.722;2023-01-29T03:32:02;102327.59;;;-0.46;100.00
47670;BME280;33408;52.062;11.722;2023-01-29T03:34:29;102327.44;;;-0.33;100.00
47670;BME280;33408;52.062;11.722;2023-01-29T03:37:06;102318.13;;;-0.49;100.00
47670;BME280;33408;52.062;11.722;2023-01-29T03:39:34;102320.75;;;-0.31;100.00
47670;BME280;33408;52.062;11.722;2023-01-29T03:42:04;102311.44;;;-0.47;100.00
47670;BME280;33408;52.062;11.722;2023-01-29T03:44:41;102320.22;;;-0.42;100.00
47670;BME280;33408;52.062;11.722;2023-01-29T03:47:17;102317.88;;;-0.21;100.00
47670;BME280;33408;52.062;11.722;2023-01-29T03:49:55;102316.69;;;-0.44;100.00
47670;BME280;33408;52.062;11.722;2023-01-29T03:52:25;102312.94;;;-0.34;100.00
47670;BME280;33408;52.062;11.722;2023-01-29T03:54:58;102307.47;;;-0.42;100.00
47670;BME280;33408;52.062;11.722;2023-01-29T03:57:28;102305.22;;;-0.35;100.00
47670;BME280;33408;52.062;11.722;2023-01-29T04:00:02;102303.94;;;-0.44;100.00
47670;BME280;33408;52.062;11.722;2023-01-29T04:02:41;102302.38;;;-0.42;100.00
47670;BME280;33408;52.062;11.722;2023-01-29T04:05:12;102299.50;;;-0.48;100.00
47670;BME280;33408;52.062;11.722;2023-01-29T04:07:41;102301.41;;;-0.60;100.00
47670;BME280;33408;52.062;11.722;2023-01-29T04:10:11;102290.09;;;-0.65;100.00
47670;BME280;33408;52.062;11.722;2023-01-29T04:12:43;102283.97;;;-0.69;100.00
47670;BME280;33408;52.062;11.722;2023-01-29T04:15:13;102283.91;;;-0.70;100.00
47670;BME280;33408;52.062;11.722;2023-01-29T04:17:45;102280.25;;;-0.59;100.00
47670;BME280;33408;52.062;11.722;2023-01-29T04:20:14;102276.25;;;-0.70;100.00
47670;BME280;33408;52.062;11.722;2023-01-29T04:22:44;102270.59;;;-0.65;100.00
47670;BME280;33408;52.062;11.722;2023-01-29T04:25:12;102256.13;;;-0.66;100.00
47670;BME280;33408;52.062;11.722;2023-01-29T04:27:44;102248.84;;;-0.58;100.00
47670;BME280;33408;52.062;11.722;2023-01-29T04:30:22;102238.66;;;-0.58;100.00
47670;BME280;33408;52.062;11.722;2023-01-29T04:33:02;102241.63;;;-0.67;100.00
47670;BME280;33408;52.062;11.722;2023-01-29T04:35:31;102227.06;;;-0.53;100.00
47670;BME280;33408;52.062;11.722;2023-01-29T04:38:08;102226.50;;;-0.64;100.00
47670;BME280;33408;52.062;11.722;2023-01-29T04:40:44;102232.72;;;-0.59;100.00
47670;BME280;33408;52.062;11.722;2023-01-29T04:43:16;102226.50;;;-0.64;100.00
47670;BME280;33408;52.062;11.722;2023-01-29T04:45:52;102230.09;;;-0.60;100.00
47670;BME280;33408;52.062;11.722;2023-01-29T04:48:29;102227.69;;;-0.57;100.00
47670;BME280;33408;52.062;11.722;2023-01-29T04:51:03;102223.72;;;-0.52;100.00
47670;BME280;33408;52.062;11.722;2023-01-29T04:53:38;102204.78;;;-0.57;100.00
47670;BME280;33408;52.062;11.722;2023-01-29T04:56:15;102199.53;;;-0.60;100.00
47670;BME280;33408;52.062;11.722;2023-01-29T04:58:47;102194.59;;;-0.57;100.00
47670;BME280;33408;52.062;11.722;2023-01-29T05:01:16;102196.75;;;-0.65;100.00
47670;BME280;33408;52.062;11.722;2023-01-29T05:03:48;102194.59;;;-0.57;100.00
47670;BME280;33408;52.062;11.722;2023-01-29T05:06:16;102199.69;;;-0.57;100.00
47670;BME280;33408;52.062;11.722;2023-01-29T05:08:44;102183.06;;;-0.67;100.00
47670;BME280;33408;52.062;11.722;2023-01-29T05:11:12;102188.56;;;-0.59;100.00
47670;BME280;33408;52.062;11.722;2023-01-29T05:13:41;102184.59;;;-0.70;100.00
47670;BME280;33408;52.062;11.722;2023-01-29T05:16:12;102181.81;;;-0.75;100.00
47670;BME280;33408;52.062;11.722;2023-01-29T05:18:40;102179.63;;;-0.84;100.00
47670;BME280;33408;52.062;11.722;2023-01-29T05:21:09;102193.44;;;-0.80;100.00
47670;BME280;33408;52.062;11.722;2023-01-29T05:23:35;102190.84;;;-0.64;100.00
47670;BME280;33408;52.062;11.722;2023-01-29T05:26:03;102189.19;;;-0.63;100.00
47670;BME280;33408;52.062;11.722;2023-01-29T05:28:29;102187.19;;;-0.52;100.00
47670;BME280;33408;52.062;11.722;2023-01-29T05:30:55;102181.06;;;-0.56;100.00
47670;BME280;33408;52.062;11.722;2023-01-29T05:33:23;102178.59;;;-0.54;100.00
47670;BME280;33408;52.062;11.722;2023-01-29T05:35:50;102177.22;;;-0.48;100.00
47670;BME280;33408;52.062;11.722;2023-01-29T05:38:18;102164.88;;;-0.40;100.00
47670;BME280;33408;52.062;11.722;2023-01-29T05:40:45;102169.38;;;-0.34;100.00
47670;BME280;33408;52.062;11.722;2023-01-29T05:43:16;102172.88;;;-0.32;100.00
47670;BME280;33408;52.062;11.722;2023-01-29T05:45:51;102181.22;;;-0.19;100.00
47670;BME280;33408;52.062;11.722;2023-01-29T05:48:17;102181.06;;;-0.22;100.00
47670;BME280;33408;52.062;11.722;2023-01-29T05:50:44;102184.63;;;-0.18;100.00
47670;BME280;33408;52.062;11.722;2023-01-29T05:53:11;102179.81;;;-0.30;100.00
47670;BME280;33408;52.062;11.722;2023-01-29T05:55:38;102177.03;;;-0.34;100.00
47670;BME280;33408;52.062;11.722;2023-01-29T05:58:05;102186.31;;;-0.19;100.00
47670;BME280;33408;52.062;11.722;2023-01-29T06:00:32;102194.78;;;-0.36;100.00
47670;BME280;33408;52.062;11.722;2023-01-29T06:02:58;102195.38;;;-0.42;100.00
47670;BME280;33408;52.062;11.722;2023-01-29T06:05:25;102201.88;;;-0.30;100.00
47670;BME280;33408;52.062;11.722;2023-01-29T06:07:52;102214.31;;;-0.37;100.00
47670;BME280;33408;52.062;11.722;2023-01-29T06:10:18;102214.09;;;-0.23;100.00
47670;BME280;33408;52.062;11.722;2023-01-29T06:12:46;102208.06;;;-0.25;100.00
47670;BME280;33408;52.062;11.722;2023-01-29T06:15:13;102200.59;;;-0.22;100.00
47670;BME280;33408;52.062;11.722;2023-01-29T06:17:41;102201.88;;;-0.30;100.00
47670;BME280;33408;52.062;11.722;2023-01-29T06:20:08;102211.75;;;-0.37;100.00
47670;BME280;33408;52.062;11.722;2023-01-29T06:22:40;102222.94;;;-0.16;100.00
47670;BME280;33408;52.062;11.722;2023-01-29T06:25:08;102230.19;;;-0.08;100.00
47670;BME280;33408;52.062;11.722;2023-01-29T06:27:34;102240.69;;;0.16;100.00
47670;BME280;33408;52.062;11.722;2023-01-29T06:30:03;102238.56;;;0.26;100.00
47670;BME280;33408;52.062;11.722;2023-01-29T06:32:30;102253.31;;;0.31;100.00
47670;BME280;33408;52.062;11.722;2023-01-29T06:34:57;102249.28;;;0.36;100.00
47670;BME280;33408;52.062;11.722;2023-01-29T06:37:26;102257.03;;;0.38;100.00
47670;BME280;33408;52.062;11.722;2023-01-29T06:39:52;102260.56;;;0.24;100.00
47670;BME280;33408;52.062;11.722;2023-01-29T06:42:19;102262.50;;;0.28;100.00
47670;BME280;33408;52.062;11.722;2023-01-29T06:44:52;102250.81;;;0.33;100.00
47670;BME280;33408;52.062;11.722;2023-01-29T06:47:19;102254.22;;;0.15;100.00
47670;BME280;33408;52.062;11.722;2023-01-29T06:49:46;102249.72;;;0.10;100.00
47670;BME280;33408;52.062;11.722;2023-01-29T06:52:13;102258.66;;;0.02;100.00
47670;BME280;33408;52.062;11.722;2023-01-29T06:54:39;102260.28;;;-0.17;100.00
47670;BME280;33408;52.062;11.722;2023-01-29T06:57:06;102256.13;;;-0.15;100.00
47670;BME280;33408;52.062;11.722;2023-01-29T06:59:32;102253.44;;;-0.18;100.00
47670;BME280;33408;52.062;11.722;2023-01-29T07:01:59;102251.63;;;-0.21;100.00
47670;BME280;33408;52.062;11.722;2023-01-29T07:04:27;102253.50;;;-0.16;100.00
47670;BME280;33408;52.062;11.722;2023-01-29T07:06:54;102254.13;;;-0.04;100.00
47670;BME280;33408;52.062;11.722;2023-01-29T07:09:21;102243.88;;;-0.06;100.00
47670;BME280;33408;52.062;11.722;2023-01-29T07:11:47;102252.44;;;-0.04;100.00
47670;BME280;33408;52.062;11.722;2023-01-29T07:14:14;102237.16;;;-0.04;100.00
47670;BME280;33408;52.062;11.722;2023-01-29T07:16:40;102234.03;;;0.02;100.00
47670;BME280;33408;52.062;11.722;2023-01-29T07:19:07;102227.72;;;0.12;100.00
47670;BME280;33408;52.062;11.722;2023-01-29T07:21:35;102234.69;;;0.16;100.00
47670;BME280;33408;52.062;11.722;2023-01-29T07:24:02;102222.31;;;0.06;100.00
47670;BME280;33408;52.062;11.722;2023-01-29T07:26:29;102220.41;;;0.02;100.00
47670;BME280;33408;52.062;11.722;2023-01-29T07:28:55;102223.19;;;0.06;100.00
47670;BME280;33408;52.062;11.722;2023-01-29T07:31:22;102226.56;;;0.23;100.00
47670;BME280;33408;52.062;11.722;2023-01-29T07:33:49;102233.59;;;0.11;100.00
47670;BME280;33408;52.062;11.722;2023-01-29T07:36:15;102226.47;;;0.22;100.00
47670;BME280;33408;52.062;11.722;2023-01-29T07:38:47;102220.94;;;0.30;100.00
47670;BME280;33408;52.062;11.722;2023-01-29T07:41:14;102223.25;;;0.26;100.00
47670;BME280;33408;52.062;11.722;2023-01-29T07:43:41;102230.19;;;0.28;100.00
47670;BME280;33408;52.062;11.722;2023-01-29T07:46:07;102237.41;;;0.37;100.00
47670;BME280;33408;52.062;11.722;2023-01-29T07:48:34;102235.06;;;0.42;100.00
47670;BME280;33408;52.062;11.722;2023-01-29T07:51:00;102241.38;;;0.48;100.00
47670;BME280;33408;52.062;11.722;2023-01-29T07:53:27;102246.31;;;0.45;100.00
47670;BME280;33408;52.062;11.722;2023-01-29T07:55:56;102246.88;;;0.58;100.00
47670;BME280;33408;52.062;11.722;2023-01-29T07:58:22;102250.03;;;0.52;100.00
47670;BME280;33408;52.062;11.722;2023-01-29T08:00:49;102256.94;;;0.54;100.00
47670;BME280;33408;52.062;11.722;2023-01-29T08:03:16;102243.81;;;0.65;100.00
47670;BME280;33408;52.062;11.722;2023-01-29T08:05:44;102242.28;;;0.68;100.00
47670;BME280;33408;52.062;11.722;2023-01-29T08:08:11;102222.66;;;0.67;100.00
47670;BME280;33408;52.062;11.722;2023-01-29T08:10:39;102198.91;;;0.68;100.00
47670;BME280;33408;52.062;11.722;2023-01-29T08:13:07;102197.69;;;0.80;100.00
47670;BME280;33408;52.062;11.722;2023-01-29T08:15:34;102195.09;;;0.78;100.00
47670;BME280;33408;52.062;11.722;2023-01-29T08:18:01;102192.75;;;0.83;100.00
47670;BME280;33408;52.062;11.722;2023-01-29T08:20:27;102193.47;;;0.80;100.00
47670;BME280;33408;52.062;11.722;2023-01-29T08:22:58;102204.72;;;0.66;100.00
47670;BME280;33408;52.062;11.722;2023-01-29T08:25:25;102210.19;;;0.73;100.00
47670;BME280;33408;52.062;11.722;2023-01-29T08:27:52;102205.16;;;0.75;100.00
47670;BME280;33408;52.062;11.722;2023-01-29T08:30:19;102200.78;;;0.72;100.00
47670;BME280;33408;52.062;11.722;2023-01-29T08:32:46;102198.50;;;0.79;100.00
47670;BME280;33408;52.062;11.722;2023-01-29T08:35:13;102191.13;;;0.85;100.00
47670;BME280;33408;52.062;11.722;2023-01-29T08:37:39;102195.78;;;0.94;100.00
47670;BME280;33408;52.062;11.722;2023-01-29T08:40:07;102194.59;;;1.05;100.00
47670;BME280;33408;52.062;11.722;2023-01-29T08:42:36;102180.41;;;0.92;100.00
47670;BME280;33408;52.062;11.722;2023-01-29T08:45:03;102171.84;;;0.91;100.00
47670;BME280;33408;52.062;11.722;2023-01-29T08:47:32;102168.91;;;1.02;100.00
47670;BME280;33408;52.062;11.722;2023-01-29T08:49:58;102172.19;;;0.99;100.00
47670;BME280;33408;52.062;11.722;2023-01-29T08:52:25;102180.53;;;1.15;100.00
47670;BME280;33408;52.062;11.722;2023-01-29T08:54:51;102176.75;;;1.26;100.00
47670;BME280;33408;52.062;11.722;2023-01-29T08:57:18;102184.44;;;1.06;100.00
47670;BME280;33408;52.062;11.722;2023-01-29T08:59:44;102184.44;;;1.06;100.00
47670;BME280;33408;52.062;11.722;2023-01-29T09:02:11;102184.94;;;0.99;100.00
47670;BME280;33408;52.062;11.722;2023-01-29T09:04:39;102185.38;;;1.08;100.00
47670;BME280;33408;52.062;11.722;2023-01-29T09:07:05;102187.78;;;1.05;100.00
47670;BME280;33408;52.062;11.722;2023-01-29T09:09:32;102184.56;;;1.09;100.00
47670;BME280;33408;52.062;11.722;2023-01-29T09:11:59;102181.59;;;1.20;100.00
47670;BME280;33408;52.062;11.722;2023-01-29T09:14:25;102183.09;;;1.15;100.00
47670;BME280;33408;52.062;11.722;2023-01-29T09:16:52;102183.47;;;1.24;100.00
47670;BME280;33408;52.062;11.722;2023-01-29T09:19:19;102174.53;;;1.34;100.00
47670;BME280;33408;52.062;11.722;2023-01-29T09:21:47;102182.50;;;1.41;100.00
47670;BME280;33408;52.062;11.722;2023-01-29T09:24:14;102172.41;;;1.44;100.00
47670;BME280;33408;52.062;11.722;2023-01-29T09:26:40;102168.44;;;1.51;100.00
47670;BME280;33408;52.062;11.722;2023-01-29T09:29:08;102166.13;;;1.57;100.00
47670;BME280;33408;52.062;11.722;2023-01-29T09:31:35;102165.94;;;1.53;100.00
47670;BME280;33408;52.062;11.722;2023-01-29T09:34:02;102160.03;;;1.54;100.00
47670;BME280;33408;52.062;11.722;2023-01-29T09:36:28;102149.69;;;1.51;100.00
47670;BME280;33408;52.062;11.722;2023-01-29T09:38:56;102152.22;;;1.51;100.00
47670;BME280;33408;52.062;11.722;2023-01-29T09:41:32;102154.34;;;1.61;100.00
47670;BME280;33408;52.062;11.722;2023-01-29T09:44:03;102160.97;;;1.56;100.00
47670;BME280;33408;52.062;11.722;2023-01-29T09:46:39;102138.94;;;1.59;100.00
47670;BME280;33408;52.062;11.722;2023-01-29T09:49:11;102135.97;;;1.70;100.00
47670;BME280;33408;52.062;11.722;2023-01-29T09:51:41;102142.53;;;1.84;100.00
47670;BME280;33408;52.062;11.722;2023-01-29T09:54:16;102146.13;;;1.89;100.00
47670;BME280;33408;52.062;11.722;2023-01-29T09:56:45;102151.31;;;1.91;100.00
47670;BME280;33408;52.062;11.722;2023-01-29T09:59:13;102142.59;;;1.86;100.00
47670;BME280;33408;52.062;11.722;2023-01-29T10:01:51;102138.47;;;1.89;100.00
47670;BME280;33408;52.062;11.722;2023-01-29T10:07:43;102128.69;;;2.23;100.00
47670;BME280;33408;52.062;11.722;2023-01-29T10:10:32;102127.34;;;2.10;100.00
47670;BME280;33408;52.062;11.722;2023-01-29T10:13:05;102129.84;;;2.31;100.00
47670;BME280;33408;52.062;11.722;2023-01-29T10:15:44;102132.69;;;2.16;100.00
47670;BME280;33408;52.062;11.722;2023-01-29T10:18:32;102127.63;;;2.17;100.00
47670;BME280;33408;52.062;11.722;2023-01-29T10:21:13;102122.78;;;2.25;100.00
47670;BME280;33408;52.062;11.722;2023-01-29T10:23:46;102106.75;;;2.07;100.00
47670;BME280;33408;52.062;11.722;2023-01-29T10:26:20;102106.50;;;2.23;100.00
47670;BME280;33408;52.062;11.722;2023-01-29T10:28:49;102102.31;;;2.48;100.00
47670;BME280;33408;52.062;11.722;2023-01-29T10:31:21;102094.97;;;2.57;100.00
47670;BME280;33408;52.062;11.722;2023-01-29T10:33:54;102094.63;;;2.72;100.00
47670;BME280;33408;52.062;11.722;2023-01-29T10:36:31;102095.31;;;2.66;100.00
47670;BME280;33408;52.062;11.722;2023-01-29T10:38:59;102099.63;;;2.67;100.00
47670;BME280;33408;52.062;11.722;2023-01-29T10:41:46;102093.59;;;2.67;100.00
47670;BME280;33408;52.062;11.722;2023-01-29T10:44:25;102084.84;;;2.84;100.00
47670;BME280;33408;52.062;11.722;2023-01-29T10:47:04;102083.97;;;2.84;100.00
47670;BME280;33408;52.062;11.722;2023-01-29T10:49:45;102077.06;;;2.81;100.00
47670;BME280;33408;52.062;11.722;2023-01-29T10:52:25;102076.34;;;2.85;100.00
47670;BME280;33408;52.062;11.722;2023-01-29T10:55:03;102081.47;;;2.85;100.00
47670;BME280;33408;52.062;11.722;2023-01-29T10:57:45;102073.06;;;2.89;100.00
47670;BME280;33408;52.062;11.722;2023-01-29T11:00:19;102061.75;;;2.83;100.00
47670;BME280;33408;52.062;11.722;2023-01-29T11:02:48;102065.66;;;2.73;100.00
47670;BME280;33408;52.062;11.722;2023-01-29T11:05:19;102057.41;;;2.82;100.00
47670;BME280;33408;52.062;11.722;2023-01-29T11:07:56;102064.75;;;2.71;100.00
47670;BME280;33408;52.062;11.722;2023-01-29T11:10:26;102069.59;;;2.63;100.00
47670;BME280;33408;52.062;11.722;2023-01-29T11:12:55;102063.91;;;2.72;100.00
47670;BME280;33408;52.062;11.722;2023-01-29T11:15:26;102058.75;;;2.70;100.00
47670;BME280;33408;52.062;11.722;2023-01-29T11:18:00;102043.34;;;2.69;100.00
47670;BME280;33408;52.062;11.722;2023-01-29T11:20:31;102048.66;;;2.75;100.00
47670;BME280;33408;52.062;11.722;2023-01-29T11:22:58;102037.22;;;2.65;100.00
47670;BME280;33408;52.062;11.722;2023-01-29T11:25:25;102034.84;;;2.70;100.00
47670;BME280;33408;52.062;11.722;2023-01-29T11:27:56;102039.16;;;2.71;100.00
47670;BME280;33408;52.062;11.722;2023-01-29T11:30:26;102027.78;;;2.63;100.00
47670;BME280;33408;52.062;11.722;2023-01-29T11:32:59;102035.44;;;2.63;100.00
47670;BME280;33408;52.062;11.722;2023-01-29T11:35:31;102030.75;;;2.51;100.00
47670;BME280;33408;52.062;11.722;2023-01-29T11:38:06;102023.91;;;2.50;100.00
47670;BME280;33408;52.062;11.722;2023-01-29T11:40:38;102022.44;;;2.57;100.00
47670;BME280;33408;52.062;11.722;2023-01-29T11:43:30;102026.34;;;2.47;100.00
47670;BME280;33408;52.062;11.722;2023-01-29T11:46:00;102018.63;;;2.45;100.00
47670;BME280;33408;52.062;11.722;2023-01-29T11:48:33;102010.22;;;2.49;100.00
47670;BME280;33408;52.062;11.722;2023-01-29T11:51:01;102004.69;;;2.61;100.00
47670;BME280;33408;52.062;11.722;2023-01-29T11:53:35;102012.63;;;2.69;100.00
47670;BME280;33408;52.062;11.722;2023-01-29T11:56:15;102005.88;;;2.47;100.00
47670;BME280;33408;52.062;11.722;2023-01-29T11:58:45;102009.63;;;2.57;100.00
47670;BME280;33408;52.062;11.722;2023-01-29T12:01:16;102008.16;;;2.63;100.00
47670;BME280;33408;52.062;11.722;2023-01-29T12:03:45;101993.91;;;7.15;100.00
47670;BME280;33408;52.062;11.722;2023-01-29T12:06:17;102006.94;;;8.56;100.00
47670;BME280;33408;52.062;11.722;2023-01-29T12:08:53;102017.41;;;9.82;100.00
47670;BME280;33408;52.062;11.722;2023-01-29T12:11:27;101985.06;;;4.60;100.00
47670;BME280;33408;52.062;11.722;2023-01-29T12:13:56;101983.50;;;3.45;100.00
47670;BME280;33408;52.062;11.722;2023-01-29T12:16:27;101971.25;;;2.82;100.00
47670;BME280;33408;52.062;11.722;2023-01-29T12:19:03;101969.53;;;2.83;100.00
47670;BME280;33408;52.062;11.722;2023-01-29T12:21:34;101960.75;;;2.74;100.00
47670;BME280;33408;52.062;11.722;2023-01-29T12:24:11;101965.09;;;2.77;100.00
47670;BME280;33408;52.062;11.722;2023-01-29T12:26:45;101968.47;;;2.76;100.00
47670;BME280;33408;52.062;11.722;2023-01-29T12:29:23;101960.59;;;2.70;100.00
47670;BME280;33408;52.062;11.722;2023-01-29T12:31:57;101955.13;;;2.61;100.00
47670;BME280;33408;52.062;11.722;2023-01-29T12:34:32;101948.78;;;2.49;100.00
47670;BME280;33408;52.062;11.722;2023-01-29T12:37:10;101940.50;;;2.57;100.00
47670;BME280;33408;52.062;11.722;2023-01-29T12:39:37;101935.84;;;2.70;100.00
47670;BME280;33408;52.062;11.722;2023-01-29T12:42:08;101926.81;;;2.54;100.00
47670;BME280;33408;52.062;11.722;2023-01-29T12:44:41;101916.19;;;2.69;100.00
47670;BME280;33408;52.062;11.722;2023-01-29T12:47:14;101922.53;;;2.55;100.00
47670;BME280;33408;52.062;11.722;2023-01-29T12:49:45;101917.94;;;2.45;100.00
47670;BME280;33408;52.062;11.722;2023-01-29T12:52:16;101909.00;;;2.59;100.00
47670;BME280;33408;52.062;11.722;2023-01-29T12:54:48;101911.44;;;2.80;100.00
47670;BME280;33408;52.062;11.722;2023-01-29T12:57:20;101900.03;;;2.72;100.00